Strona główna
METAR-TAF:

METAR-TAF

Lotnisko :

Manassas Regional Airport (Harry P. Davis Field)

Manassas, Wirginia, Stany Zjednoczone

Szerokość geograficzna: 38-43N, Długość geograficzna: 077-31W, wysokość: 59 m

Aktualna obserwacja pogody

Raport powstał 19 minut temu, godzina 11:56 UTC
Cisza
Temperatura 24°C
Wilgotność 83%
Ciśnienie 1012 hPa
Widzialność: 16.1 km
bezchmurnie

METAR: KHEF 251156Z 00000KT 10SM CLR 24/21 A2987 RMK AO2 SLP121 6//// 7//// T02390211 10239 20211 53018 PNO $

czas: 08:15 (12:15 UTC)


TAF: brakujący

Obserwacja i prognoza pogody dla ponad 4000 lotnisk (raport METAR i TAF).

Dostępne stacje oznaczono żółtymi i czerwonymi punktami na mapie.

Najedź kursorem aby zobaczyć nazwę stacji.

Kliknij aby zobaczyć obserwacje i prognozy pogody.

Aby zmienić mapę: kliknij na zielony przycisk z czarnym krzyżykiem, aby powiększyć; na zielony przycisk z myślnikiem, aby pomniejszyć; na zielone strzałki, aby przejść do map sąsiednich.


METAR-TAF: